Time;durP1;ratioP1;P1;durP2;ratioP2;P2;SDS_P1;SDS_P2;PMS_P1;PMS_P2;Temp;Humidity;BMP_temperature;BMP_pressure;BME280_temperature;BME280_humidity;BME280_pressure;Samples;Min_cycle;Max_cycle;Signal;HPM_P1;HPM_P2
2020/12/27 00:00:33;;;;;;;7.75;5.70;;;-7.30;69.40;;;;;;4927015;29;20102;-74
2020/12/27 00:03:04;;;;;;;6.50;5.70;;;-7.30;71.80;;;;;;4929826;30;20051;-73
2020/12/27 00:05:36;;;;;;;5.55;5.05;;;-7.20;70.40;;;;;;4929734;29;20507;-73
2020/12/27 00:08:07;;;;;;;5.57;4.97;;;-7.20;69.50;;;;;;4929816;30;20048;-72
2020/12/27 00:10:39;;;;;;;5.43;4.93;;;-7.30;69.90;;;;;;4928195;29;20048;-73
2020/12/27 00:13:11;;;;;;;6.28;5.65;;;-7.40;70.40;;;;;;4943654;29;20079;-74
2020/12/27 00:15:43;;;;;;;5.82;5.22;;;-7.30;70.60;;;;;;4930175;29;20083;-74
2020/12/27 00:18:14;;;;;;;5.45;4.93;;;-7.30;70.40;;;;;;4940288;29;20478;-74
2020/12/27 00:20:46;;;;;;;5.47;4.90;;;-7.40;70.60;;;;;;4928486;29;20047;-74
2020/12/27 00:23:17;;;;;;;5.78;5.28;;;-7.40;70.20;;;;;;4930814;30;20067;-73
2020/12/27 00:25:48;;;;;;;5.13;4.63;;;-7.50;71.40;;;;;;4940719;29;20136;-73
2020/12/27 00:28:20;;;;;;;6.15;5.00;;;-7.50;70.70;;;;;;4927342;30;20699;-73
2020/12/27 00:30:51;;;;;;;5.70;5.05;;;-7.50;71.10;;;;;;4924108;29;20112;-73
2020/12/27 00:33:23;;;;;;;5.88;4.90;;;-7.60;71.00;;;;;;4927566;30;20044;-73
2020/12/27 00:35:54;;;;;;;6.85;5.78;;;-7.60;70.90;;;;;;4926925;29;20122;-73
2020/12/27 00:38:26;;;;;;;6.30;5.70;;;-7.50;70.40;;;;;;4937787;29;20864;-73
2020/12/27 00:40:58;;;;;;;7.13;5.93;;;-7.50;69.30;;;;;;4927106;29;20109;-73
2020/12/27 00:43:29;;;;;;;6.93;5.95;;;-7.60;69.10;;;;;;4941015;29;20052;-73
2020/12/27 00:46:01;;;;;;;6.20;5.60;;;-7.60;70.60;;;;;;4927013;29;20062;-72
2020/12/27 00:48:33;;;;;;;5.75;5.20;;;-7.60;71.60;;;;;;4925678;30;20477;-73
2020/12/27 00:51:05;;;;;;;6.25;5.65;;;-7.50;71.30;;;;;;4915339;30;20060;-73
2020/12/27 00:53:36;;;;;;;5.40;4.90;;;-7.50;71.30;;;;;;4927026;30;20094;-73
2020/12/27 00:56:09;;;;;;;5.15;4.65;;;-7.50;72.00;;;;;;4926785;29;20063;-73
2020/12/27 00:58:54;;;;;;;5.53;4.88;;;-7.50;71.60;;;;;;4943227;29;20063;-73
2020/12/27 01:01:25;;;;;;;5.32;4.82;;;-7.50;72.70;;;;;;4925711;29;20044;-74
2020/12/27 01:03:58;;;;;;;5.70;5.20;;;-7.50;72.10;;;;;;4939926;29;20056;-74
2020/12/27 01:06:30;;;;;;;5.82;5.22;;;-7.50;72.20;;;;;;4927991;29;20056;-73
2020/12/27 01:09:08;;;;;;;5.20;4.70;;;-7.50;72.90;;;;;;4939092;29;20059;-74
2020/12/27 01:11:40;;;;;;;5.88;4.80;;;-7.40;72.30;;;;;;4908631;30;20054;-73
2020/12/27 01:14:12;;;;;;;4.95;4.45;;;-7.50;72.30;;;;;;4939817;29;20055;-72
2020/12/27 01:16:48;;;;;;;5.00;4.50;;;-7.50;71.70;;;;;;4937828;29;20151;-72
2020/12/27 01:19:21;;;;;;;5.60;5.10;;;-7.50;72.40;;;;;;4935624;29;20059;-72
2020/12/27 01:21:53;;;;;;;6.07;5.13;;;-7.50;72.00;;;;;;4921500;30;20117;-73
2020/12/27 01:24:41;;;;;;;5.90;5.28;;;-7.50;71.80;;;;;;4928437;29;20063;-73
2020/12/27 01:27:13;;;;;;;16.40;5.93;;;-7.50;71.00;;;;;;4938321;29;20134;-74
2020/12/27 01:29:44;;;;;;;6.30;5.43;;;-7.40;70.40;;;;;;4940488;29;20048;-73
2020/12/27 01:32:29;;;;;;;6.97;5.75;;;-7.40;69.90;;;;;;4924050;30;20526;-74
2020/12/27 01:35:01;;;;;;;6.63;4.97;;;-7.40;69.30;;;;;;4939703;29;20063;-73
2020/12/27 01:37:32;;;;;;;5.68;4.82;;;-7.40;69.00;;;;;;4926687;29;20076;-73
2020/12/27 01:40:04;;;;;;;4.95;4.45;;;-7.40;69.00;;;;;;4938901;29;20052;-73
2020/12/27 01:42:36;;;;;;;6.30;4.93;;;-7.50;69.60;;;;;;4938620;29;20056;-73
2020/12/27 01:45:08;;;;;;;6.53;4.97;;;-7.50;69.30;;;;;;4939304;29;20223;-73
2020/12/27 01:47:58;;;;;;;6.28;5.25;;;-7.40;69.20;;;;;;4924276;29;20423;-73
2020/12/27 01:50:30;;;;;;;6.00;5.40;;;-7.50;68.30;;;;;;4931010;29;20058;-73
2020/12/27 01:53:04;;;;;;;7.03;5.57;;;-7.60;68.70;;;;;;4925986;30;20127;-74
2020/12/27 01:55:40;;;;;;;6.45;5.53;;;-7.60;68.80;;;;;;4941002;29;20107;-74
2020/12/27 01:58:20;;;;;;;6.15;5.45;;;-7.60;69.30;;;;;;4925441;30;20058;-73
2020/12/27 02:01:17;;;;;;;6.55;5.43;;;-7.60;68.10;;;;;;4923899;29;20047;-73
2020/12/27 02:04:02;;;;;;;5.80;5.20;;;-7.60;68.20;;;;;;4941922;29;20047;-74
2020/12/27 02:06:42;;;;;;;5.20;4.70;;;-7.70;68.60;;;;;;4938466;29;20062;-74
2020/12/27 02:09:29;;;;;;;5.53;5.03;;;-7.70;71.20;;;;;;4917304;30;20058;-74
2020/12/27 02:12:09;;;;;;;5.45;4.95;;;-7.70;72.30;;;;;;4922666;30;20417;-74
2020/12/27 02:14:53;;;;;;;5.30;4.80;;;-7.70;71.80;;;;;;4906714;30;20415;-74
2020/12/27 02:17:30;;;;;;;5.40;4.90;;;-7.70;71.40;;;;;;4929931;29;20055;-73
2020/12/27 02:20:19;;;;;;;5.82;4.75;;;-7.80;71.70;;;;;;4934872;29;20515;-74
2020/12/27 02:22:59;;;;;;;5.90;5.30;;;-7.80;73.00;;;;;;4917811;30;20054;-73
2020/12/27 02:25:40;;;;;;;6.28;5.68;;;-7.80;73.00;;;;;;4936036;29;20052;-74
2020/12/27 02:28:23;;;;;;;5.47;4.95;;;-7.80;70.30;;;;;;4940719;29;20247;-73
2020/12/27 02:30:59;;;;;;;5.10;4.53;;;-7.80;72.10;;;;;;4920090;30;20071;-74
2020/12/27 02:33:36;;;;;;;5.43;4.93;;;-7.80;73.60;;;;;;4939282;29;20058;-73
2020/12/27 02:36:15;;;;;;;5.60;5.10;;;-7.80;73.70;;;;;;4937933;29;20150;-73
2020/12/27 02:38:49;;;;;;;5.40;4.90;;;-7.70;73.90;;;;;;4939045;29;20064;-73
2020/12/27 02:41:27;;;;;;;6.05;5.18;;;-7.70;73.70;;;;;;4938125;29;20193;-73
2020/12/27 02:44:09;;;;;;;5.30;4.80;;;-7.70;71.70;;;;;;4939139;29;20754;-73
2020/12/27 02:46:57;;;;;;;6.90;5.40;;;-7.70;72.90;;;;;;4936462;29;20128;-73
2020/12/27 02:49:58;;;;;;;6.43;5.47;;;-7.60;72.20;;;;;;4937612;29;20071;-73
2020/12/27 02:52:30;;;;;;;6.22;5.18;;;-7.60;70.90;;;;;;4935949;29;20048;-73
2020/12/27 02:55:02;;;;;;;6.32;5.10;;;-7.60;70.80;;;;;;4939196;29;20056;-73
2020/12/27 02:57:43;;;;;;;6.38;5.53;;;-7.50;70.30;;;;;;4938518;29;20052;-71
2020/12/27 03:00:15;;;;;;;6.10;5.15;;;-7.50;70.10;;;;;;4923356;29;20048;-74
2020/12/27 03:03:15;;;;;;;6.82;5.28;;;-7.50;69.80;;;;;;4937763;29;20059;-74
2020/12/27 03:05:54;;;;;;;7.28;5.70;;;-7.50;70.10;;;;;;4944158;29;20647;-74
2020/12/27 03:08:25;;;;;;;6.47;5.45;;;-7.50;70.10;;;;;;4928996;30;20080;-74
2020/12/27 03:11:05;;;;;;;6.90;5.57;;;-7.50;69.70;;;;;;4941267;29;20051;-74
2020/12/27 03:13:37;;;;;;;8.35;5.80;;;-7.50;69.50;;;;;;4941848;29;20070;-74
2020/12/27 03:16:09;;;;;;;6.53;5.32;;;-7.50;69.70;;;;;;4939287;29;20126;-74
2020/12/27 03:19:14;;;;;;;6.85;5.95;;;-7.60;70.60;;;;;;4941754;29;20048;-73
2020/12/27 03:22:11;;;;;;;6.53;4.85;;;-7.70;70.80;;;;;;4926792;30;20052;-73
2020/12/27 03:24:59;;;;;;;6.07;5.30;;;-7.80;70.40;;;;;;4943909;29;20391;-73
2020/12/27 03:27:32;;;;;;;6.75;5.18;;;-7.90;71.50;;;;;;4928348;29;20454;-74
2020/12/27 03:30:05;;;;;;;5.90;5.28;;;-7.90;71.30;;;;;;4942166;29;20048;-74
2020/12/27 03:32:40;;;;;;;5.10;4.60;;;-7.90;71.20;;;;;;4942355;29;20056;-74
2020/12/27 03:35:11;;;;;;;5.65;5.05;;;-7.80;71.30;;;;;;4926830;29;20051;-73
2020/12/27 03:37:44;;;;;;;8.02;5.45;;;-7.80;71.30;;;;;;4942554;29;20118;-74
2020/12/27 03:40:45;;;;;;;6.45;5.28;;;-7.80;71.00;;;;;;4928925;30;20056;-74
2020/12/27 03:43:26;;;;;;;6.55;5.57;;;-7.90;70.50;;;;;;4940781;29;20075;-73
2020/12/27 03:45:58;;;;;;;6.60;5.22;;;-8.10;70.60;;;;;;4939265;29;20109;-73
2020/12/27 03:48:53;;;;;;;5.80;5.20;;;-8.20;70.00;;;;;;4942041;29;20063;-73
2020/12/27 03:51:39;;;;;;;6.03;5.43;;;-8.20;69.30;;;;;;4926159;30;20102;-73
2020/12/27 03:54:11;;;;;;;5.75;5.10;;;-8.30;68.80;;;;;;4942534;29;20062;-73
2020/12/27 03:57:01;;;;;;;6.80;5.18;;;-8.30;69.20;;;;;;4920650;30;20606;-73
2020/12/27 03:59:46;;;;;;;6.47;5.55;;;-8.30;69.80;;;;;;4942345;29;20527;-74
2020/12/27 04:02:44;;;;;;;5.60;4.90;;;-8.20;69.10;;;;;;4939430;29;20048;-74
2020/12/27 04:05:16;;;;;;;6.10;5.25;;;-8.20;69.00;;;;;;4923237;29;20661;-73
2020/12/27 04:07:48;;;;;;;6.45;5.18;;;-8.10;68.80;;;;;;4937867;29;20043;-73
2020/12/27 04:10:24;;;;;;;6.68;5.32;;;-8.20;68.70;;;;;;4925077;29;20051;-74
2020/12/27 04:12:56;;;;;;;5.53;4.85;;;-8.30;68.50;;;;;;4939715;29;20051;-74
2020/12/27 04:15:27;;;;;;;5.88;5.22;;;-8.60;68.10;;;;;;4925353;29;20051;-74
2020/12/27 04:18:10;;;;;;;6.28;5.38;;;-8.60;68.70;;;;;;4940784;29;20461;-73
2020/12/27 04:21:01;;;;;;;6.47;5.30;;;-8.60;68.70;;;;;;4926461;29;20055;-74
2020/12/27 04:23:33;;;;;;;6.47;5.25;;;-8.50;69.10;;;;;;4930486;30;20125;-74
2020/12/27 04:26:05;;;;;;;6.13;5.30;;;-8.50;68.60;;;;;;4941372;29;20070;-73
2020/12/27 04:28:37;;;;;;;6.15;5.22;;;-8.50;69.00;;;;;;4941839;29;20558;-73
2020/12/27 04:31:13;;;;;;;6.70;5.05;;;-8.50;68.60;;;;;;4926105;30;20051;-73
2020/12/27 04:33:52;;;;;;;5.95;4.82;;;-8.60;68.80;;;;;;4942726;29;20051;-74
2020/12/27 04:36:59;;;;;;;5.97;5.10;;;-8.50;68.80;;;;;;4933736;29;20056;-73
2020/12/27 04:39:38;;;;;;;5.88;5.28;;;-8.50;68.60;;;;;;4926630;30;20050;-73
2020/12/27 04:42:10;;;;;;;5.68;5.10;;;-8.50;68.30;;;;;;4941309;29;20077;-74
2020/12/27 04:44:56;;;;;;;5.90;5.30;;;-8.50;68.20;;;;;;4938628;29;20412;-74
2020/12/27 04:47:47;;;;;;;5.53;4.93;;;-8.50;68.20;;;;;;4941240;29;20044;-73
2020/12/27 04:50:45;;;;;;;7.05;5.60;;;-8.50;68.60;;;;;;4927910;29;20130;-73
2020/12/27 04:53:18;;;;;;;6.13;5.53;;;-8.40;69.20;;;;;;4939253;29;20561;-73
2020/12/27 04:55:52;;;;;;;5.78;5.15;;;-8.50;69.80;;;;;;4940966;29;20051;-73
2020/12/27 04:58:44;;;;;;;6.03;5.35;;;-8.40;69.40;;;;;;4928185;30;20051;-74
2020/12/27 05:01:21;;;;;;;5.72;5.07;;;-8.40;69.30;;;;;;4939269;29;20055;-73
2020/12/27 05:04:17;;;;;;;;;;;-8.40;69.30;;;;;;4928634;30;20117;-73
2020/12/27 05:07:00;;;;;;;6.27;5.30;;;-8.50;69.10;;;;;;4925003;30;19930;-74
2020/12/27 05:09:55;;;;;;;6.10;4.90;;;-8.40;70.00;;;;;;4927143;30;20063;-73
2020/12/27 05:12:31;;;;;;;6.13;5.28;;;-8.50;69.60;;;;;;4939528;29;20106;-73
2020/12/27 05:15:07;;;;;;;9.63;5.32;;;-8.40;70.00;;;;;;4929585;29;20051;-72
2020/12/27 05:17:42;;;;;;;5.75;5.13;;;-8.40;69.70;;;;;;4925744;30;20150;-73
2020/12/27 05:20:16;;;;;;;5.18;4.68;;;-8.30;69.40;;;;;;4924949;29;20263;-73
2020/12/27 05:23:01;;;;;;;5.07;4.57;;;-8.40;70.40;;;;;;4938915;29;20418;-73
2020/12/27 05:25:53;;;;;;;5.10;4.60;;;-8.40;73.30;;;;;;4925985;29;20055;-73
2020/12/27 05:28:37;;;;;;;5.47;4.90;;;-8.40;74.20;;;;;;4915867;30;20062;-73
2020/12/27 05:31:37;;;;;;;5.93;5.32;;;-8.30;74.50;;;;;;4939558;29;20066;-73
2020/12/27 05:34:30;;;;;;;6.68;5.10;;;-8.20;73.70;;;;;;4923876;30;20104;-73
2020/12/27 05:37:21;;;;;;;6.18;5.57;;;-8.20;72.10;;;;;;4926037;29;20104;-73
2020/12/27 05:40:11;;;;;;;5.90;5.30;;;-8.20;70.70;;;;;;4926084;29;20290;-73
2020/12/27 05:43:16;;;;;;;5.97;5.18;;;-8.20;70.20;;;;;;4924008;29;20404;-73
2020/12/27 05:45:58;;;;;;;6.82;5.30;;;-8.30;69.70;;;;;;4936493;29;20055;-74
2020/12/27 05:48:33;;;;;;;5.90;5.30;;;-8.30;70.10;;;;;;4925505;30;20070;-74
2020/12/27 05:51:05;;;;;;;5.72;4.85;;;-8.30;70.80;;;;;;4940369;29;20514;-74
2020/12/27 05:53:48;;;;;;;6.32;5.30;;;-8.40;72.80;;;;;;4941312;29;20478;-74
2020/12/27 05:56:21;;;;;;;5.40;4.85;;;-8.30;72.90;;;;;;4924420;30;20269;-74
2020/12/27 05:59:01;;;;;;;7.97;5.35;;;-8.40;71.30;;;;;;4939775;29;20047;-73
2020/12/27 06:01:37;;;;;;;5.45;4.95;;;-8.30;71.10;;;;;;4923949;29;20060;-74
2020/12/27 06:04:42;;;;;;;6.65;5.30;;;-8.30;70.70;;;;;;4940779;29;20470;-74
2020/12/27 06:07:34;;;;;;;5.80;5.18;;;-8.50;70.20;;;;;;4939594;29;20052;-73
2020/12/27 06:10:11;;;;;;;5.38;4.85;;;-8.60;70.80;;;;;;4939410;29;20061;-73
2020/12/27 06:12:58;;;;;;;6.00;4.97;;;-8.60;70.50;;;;;;4940847;29;20515;-74
2020/12/27 06:15:36;;;;;;;5.90;5.00;;;-8.70;71.20;;;;;;4939374;29;20105;-73
2020/12/27 06:18:38;;;;;;;5.97;5.38;;;-8.60;71.60;;;;;;4944237;29;20063;-74
2020/12/27 06:21:28;;;;;;;5.93;5.18;;;-8.70;70.40;;;;;;4939051;29;20527;-74
2020/12/27 06:24:03;;;;;;;7.10;6.40;;;-8.70;70.50;;;;;;4939254;29;20535;-74
2020/12/27 06:26:35;;;;;;;5.28;4.78;;;-8.60;70.90;;;;;;4939160;29;20059;-74
2020/12/27 06:29:23;;;;;;;5.90;5.10;;;-8.70;71.10;;;;;;4939832;29;20056;-74
2020/12/27 06:31:59;;;;;;;6.45;5.85;;;-8.60;73.00;;;;;;4920843;30;20055;-74
2020/12/27 06:34:47;;;;;;;6.57;5.22;;;-8.60;73.60;;;;;;4923619;30;20051;-73
2020/12/27 06:37:23;;;;;;;6.00;5.05;;;-8.60;71.80;;;;;;4939083;29;20534;-73
2020/12/27 06:40:25;;;;;;;5.93;5.20;;;-8.50;72.90;;;;;;4939394;29;20062;-74
2020/12/27 06:43:18;;;;;;;6.40;5.60;;;-8.50;71.90;;;;;;4926659;29;20064;-73
2020/12/27 06:46:26;;;;;;;7.13;5.38;;;-8.40;71.70;;;;;;4935558;29;20072;-74
2020/12/27 06:49:14;;;;;;;6.93;5.63;;;-8.30;71.00;;;;;;4934862;29;20063;-73
2020/12/27 06:52:21;;;;;;;5.43;4.78;;;-8.30;70.90;;;;;;4923916;29;20052;-73
2020/12/27 06:55:11;;;;;;;8.30;6.97;;;-8.30;70.70;;;;;;4925272;29;20091;-73
2020/12/27 06:58:24;;;;;;;6.22;5.60;;;-8.30;70.30;;;;;;4924391;29;20056;-73
2020/12/27 07:01:10;;;;;;;7.00;6.30;;;-8.20;70.20;;;;;;4937515;29;20139;-73
2020/12/27 07:03:43;;;;;;;6.72;6.03;;;-8.20;70.30;;;;;;4925545;30;20047;-73
2020/12/27 07:06:42;;;;;;;8.02;5.68;;;-8.20;70.10;;;;;;4924126;29;20052;-73
2020/12/27 07:09:25;;;;;;;6.70;6.10;;;-8.10;70.10;;;;;;4927000;30;20056;-73
2020/12/27 07:12:07;;;;;;;7.47;6.10;;;-8.20;70.40;;;;;;4925427;29;20090;-73
2020/12/27 07:14:42;;;;;;;6.80;5.78;;;-8.20;71.00;;;;;;4925472;30;20051;-73
2020/12/27 07:17:23;;;;;;;6.88;6.18;;;-8.20;70.50;;;;;;4923969;30;20199;-73
2020/12/27 07:20:00;;;;;;;6.72;6.03;;;-8.20;70.70;;;;;;4925371;30;20101;-73
2020/12/27 07:22:32;;;;;;;7.05;5.70;;;-8.30;71.40;;;;;;4922997;29;20566;-73
2020/12/27 07:25:04;;;;;;;8.98;5.95;;;-8.20;71.30;;;;;;4924125;29;20055;-73
2020/12/27 07:27:39;;;;;;;6.90;6.20;;;-8.20;71.60;;;;;;4937237;29;21592;-73
2020/12/27 07:30:15;;;;;;;7.90;6.10;;;-8.10;71.40;;;;;;4923750;29;20506;-74
2020/12/27 07:32:49;;;;;;;6.75;6.03;;;-8.10;71.40;;;;;;4919440;30;20142;-73
2020/12/27 07:35:23;;;;;;;6.28;5.57;;;-8.00;71.20;;;;;;4923297;29;20051;-73
2020/12/27 07:38:02;;;;;;;7.90;6.07;;;-8.00;71.30;;;;;;4924684;30;20071;-73
2020/12/27 07:40:35;;;;;;;7.82;5.80;;;-7.90;71.70;;;;;;4914635;29;20087;-73
2020/12/27 07:43:10;;;;;;;13.07;9.23;;;-7.90;72.20;;;;;;4922138;30;20055;-73
2020/12/27 07:45:49;;;;;;;8.85;7.00;;;-7.80;72.90;;;;;;4924058;29;20044;-73
2020/12/27 07:48:20;;;;;;;7.97;6.20;;;-7.80;72.20;;;;;;4925267;30;20040;-73
2020/12/27 07:50:51;;;;;;;9.85;6.90;;;-7.80;72.60;;;;;;4923152;29;20143;-74
2020/12/27 07:53:23;;;;;;;8.10;6.60;;;-7.90;72.00;;;;;;4923674;29;20453;-73
2020/12/27 07:55:54;;;;;;;8.98;6.30;;;-7.90;71.60;;;;;;4928160;29;20048;-74
2020/12/27 07:58:26;;;;;;;7.30;6.25;;;-8.00;69.80;;;;;;4927055;30;20044;-73
2020/12/27 08:00:57;;;;;;;8.35;5.93;;;-8.10;69.30;;;;;;4927914;29;20050;-73
2020/12/27 08:03:29;;;;;;;6.93;5.78;;;-8.20;70.00;;;;;;4943330;29;20043;-74
2020/12/27 08:06:00;;;;;;;7.05;5.72;;;-8.30;71.20;;;;;;4927663;29;20059;-74
2020/12/27 08:08:32;;;;;;;8.30;5.72;;;-8.30;71.20;;;;;;4926661;30;20085;-74
2020/12/27 08:11:03;;;;;;;9.65;5.72;;;-8.20;71.10;;;;;;4927155;29;20116;-74
2020/12/27 08:13:34;;;;;;;10.63;6.30;;;-8.10;71.80;;;;;;4928027;30;20086;-74
2020/12/27 08:16:08;;;;;;;5.80;5.20;;;-8.10;73.10;;;;;;4938333;29;20055;-74
2020/12/27 08:18:40;;;;;;;5.72;5.22;;;-7.90;76.60;;;;;;4927519;30;20105;-74
2020/12/27 08:21:17;;;;;;;10.43;7.45;;;-7.60;78.40;;;;;;4923450;29;20531;-74
2020/12/27 08:23:59;;;;;;;9.73;6.57;;;-7.50;75.80;;;;;;4928171;30;20704;-74
2020/12/27 08:26:34;;;;;;;17.13;11.20;;;-7.30;75.10;;;;;;4927388;29;20134;-74
2020/12/27 08:29:16;;;;;;;24.83;12.95;;;-7.30;75.00;;;;;;4940610;29;20055;-74
2020/12/27 08:31:49;;;;;;;14.65;9.68;;;-7.20;75.20;;;;;;4925443;29;20073;-74
2020/12/27 08:34:24;;;;;;;11.27;8.85;;;-7.10;74.70;;;;;;4928140;30;20858;-74
2020/12/27 08:36:57;;;;;;;21.10;13.02;;;-7.00;74.50;;;;;;4939355;29;20132;-73
2020/12/27 08:39:52;;;;;;;15.68;11.00;;;-6.90;74.60;;;;;;4925227;30;20051;-74
2020/12/27 08:42:35;;;;;;;12.68;8.43;;;-6.70;74.10;;;;;;4923972;29;20063;-73
2020/12/27 08:45:16;;;;;;;11.57;8.73;;;-6.50;73.70;;;;;;4921068;29;20055;-73
2020/12/27 08:48:10;;;;;;;8.30;7.22;;;-6.30;73.60;;;;;;4922772;30;20048;-74
2020/12/27 08:50:44;;;;;;;8.65;6.88;;;-6.20;72.90;;;;;;4923145;29;20074;-74
2020/12/27 08:53:16;;;;;;;7.43;6.20;;;-6.10;72.60;;;;;;4924614;30;20059;-74
2020/12/27 08:55:48;;;;;;;8.80;7.18;;;-6.00;72.00;;;;;;4940282;29;20048;-73
2020/12/27 08:58:26;;;;;;;11.23;7.45;;;-5.80;72.40;;;;;;4925177;30;20766;-74
2020/12/27 09:00:58;;;;;;;9.30;7.47;;;-5.80;72.00;;;;;;4939959;29;20120;-74
2020/12/27 09:03:29;;;;;;;8.55;7.35;;;-5.80;72.30;;;;;;4927178;30;20469;-74
2020/12/27 09:06:12;;;;;;;9.10;6.97;;;-5.80;72.60;;;;;;4922647;29;20051;-73
2020/12/27 09:08:43;;;;;;;8.57;6.85;;;-5.70;73.00;;;;;;4926145;30;20077;-72
2020/12/27 09:11:15;;;;;;;8.90;7.25;;;-5.60;73.70;;;;;;4919696;30;20148;-72
2020/12/27 09:13:47;;;;;;;8.25;7.00;;;-5.50;74.10;;;;;;4927023;30;20054;-72
2020/12/27 09:16:38;;;;;;;9.18;7.70;;;-5.40;73.20;;;;;;4924879;30;20101;-73
2020/12/27 09:19:11;;;;;;;11.45;8.48;;;-5.30;72.30;;;;;;4926459;30;20529;-74
2020/12/27 09:21:42;;;;;;;11.50;8.30;;;-5.20;71.80;;;;;;4924356;29;20056;-73
2020/12/27 09:24:15;;;;;;;10.23;7.57;;;-5.20;71.50;;;;;;4925872;30;20055;-73
2020/12/27 09:26:46;;;;;;;8.20;6.60;;;-5.20;70.90;;;;;;4926191;29;20583;-74
2020/12/27 09:29:18;;;;;;;7.10;6.40;;;-5.20;72.10;;;;;;4925998;30;20051;-75
2020/12/27 09:31:50;;;;;;;6.90;6.15;;;-5.10;72.40;;;;;;4924737;29;20817;-72
2020/12/27 09:34:24;;;;;;;5.68;5.18;;;-4.90;72.70;;;;;;4925826;30;20039;-76
2020/12/27 09:36:56;;;;;;;6.85;6.15;;;-4.80;71.90;;;;;;4922142;29;20570;-77
2020/12/27 09:39:30;;;;;;;7.60;6.25;;;-4.80;72.00;;;;;;4925779;30;20052;-75
2020/12/27 09:42:02;;;;;;;6.60;5.97;;;-4.70;71.60;;;;;;4917930;30;20066;-77
2020/12/27 09:44:33;;;;;;;8.80;6.07;;;-4.50;72.30;;;;;;4925194;30;20526;-75
2020/12/27 09:47:05;;;;;;;6.40;5.68;;;-4.50;71.60;;;;;;4923360;29;20606;-76
2020/12/27 09:49:36;;;;;;;7.35;6.60;;;-4.50;71.70;;;;;;4924057;30;20051;-76
2020/12/27 09:52:12;;;;;;;7.70;6.43;;;-4.30;71.70;;;;;;4916966;30;20595;-75
2020/12/27 09:54:44;;;;;;;6.72;6.03;;;-4.10;70.40;;;;;;4922294;30;20068;-77
2020/12/27 09:57:27;;;;;;;7.22;6.40;;;-4.10;70.90;;;;;;4922555;30;20051;-76
2020/12/27 10:00:00;;;;;;;7.20;6.50;;;-4.00;70.80;;;;;;4923605;30;20463;-78
2020/12/27 10:02:31;;;;;;;8.50;7.00;;;-3.80;71.20;;;;;;4924916;29;20057;-80
2020/12/27 10:05:03;;;;;;;10.55;7.10;;;-3.70;71.30;;;;;;4921609;29;20097;-76
2020/12/27 10:07:35;;;;;;;9.27;6.50;;;-3.60;70.60;;;;;;4924467;30;20525;-76
2020/12/27 10:10:08;;;;;;;7.40;6.60;;;-3.50;70.60;;;;;;4934304;29;20055;-76
2020/12/27 10:12:40;;;;;;;9.02;7.25;;;-3.60;70.40;;;;;;4923977;30;20573;-77
2020/12/27 10:15:12;;;;;;;8.10;7.30;;;-3.50;70.40;;;;;;4924864;29;20503;-77
2020/12/27 10:17:43;;;;;;;8.65;7.28;;;-3.40;70.30;;;;;;4939005;29;20071;-77
2020/12/27 10:20:15;;;;;;;9.13;8.05;;;-3.50;70.00;;;;;;4923977;29;20081;-77
2020/12/27 10:22:46;;;;;;;10.20;8.27;;;-3.50;70.20;;;;;;4925857;30;20116;-77
2020/12/27 10:25:18;;;;;;;11.35;8.57;;;-3.70;70.40;;;;;;4925133;29;20139;-78
2020/12/27 10:27:52;;;;;;;8.50;7.03;;;-3.70;70.90;;;;;;4925645;30;20105;-77
2020/12/27 10:30:23;;;;;;;11.23;8.43;;;-3.70;71.10;;;;;;4926122;29;20047;-78
2020/12/27 10:33:05;;;;;;;10.40;8.25;;;-3.90;71.60;;;;;;4924532;30;20421;-78
2020/12/27 10:35:37;;;;;;;9.07;8.07;;;-4.00;71.90;;;;;;4937758;29;20108;-76
2020/12/27 10:38:08;;;;;;;12.25;7.13;;;-4.10;73.30;;;;;;4923465;30;20690;-72
2020/12/27 10:40:40;;;;;;;8.60;7.32;;;-3.90;72.80;;;;;;4925221;29;20497;-77
2020/12/27 10:43:11;;;;;;;10.50;7.28;;;-3.70;72.30;;;;;;4939522;29;20089;-73
2020/12/27 10:45:43;;;;;;;8.00;7.00;;;-3.60;71.90;;;;;;4939113;29;20416;-73
2020/12/27 10:48:14;;;;;;;9.38;7.35;;;-3.50;72.00;;;;;;4924362;30;20048;-74
2020/12/27 10:50:46;;;;;;;8.88;7.18;;;-3.40;71.90;;;;;;4924434;29;20210;-74
2020/12/27 10:53:17;;;;;;;8.40;7.00;;;-3.40;71.20;;;;;;4925288;30;20051;-74
2020/12/27 10:55:50;;;;;;;9.88;6.90;;;-3.30;71.50;;;;;;4925439;29;20108;-74
2020/12/27 10:58:21;;;;;;;10.70;6.68;;;-3.20;70.90;;;;;;4939805;29;20059;-76
2020/12/27 11:00:53;;;;;;;9.50;7.53;;;-3.10;71.40;;;;;;4923409;29;20067;-75
2020/12/27 11:03:24;;;;;;;7.82;6.88;;;-2.90;70.80;;;;;;4925504;30;20396;-74
2020/12/27 11:05:55;;;;;;;9.75;8.20;;;-3.10;71.00;;;;;;4919404;29;20656;-75
2020/12/27 11:08:27;;;;;;;11.50;8.45;;;-3.20;72.00;;;;;;4922803;30;20040;-74
2020/12/27 11:10:58;;;;;;;10.35;7.95;;;-3.20;72.00;;;;;;4925059;29;20047;-74
2020/12/27 11:13:30;;;;;;;8.60;7.68;;;-3.00;72.00;;;;;;4924409;30;20051;-74
2020/12/27 11:16:01;;;;;;;10.18;6.80;;;-2.90;71.50;;;;;;4923655;29;20052;-76
2020/12/27 11:18:33;;;;;;;10.45;6.57;;;-2.80;71.40;;;;;;4924442;30;20070;-74
2020/12/27 11:21:04;;;;;;;9.07;7.18;;;-2.80;71.40;;;;;;4923914;29;20051;-75
2020/12/27 11:23:36;;;;;;;8.43;6.70;;;-2.70;71.60;;;;;;4936428;29;20099;-74
2020/12/27 11:26:07;;;;;;;10.50;8.00;;;-2.60;71.50;;;;;;4928323;29;20055;-74
2020/12/27 11:28:39;;;;;;;9.00;7.40;;;-2.30;71.40;;;;;;4937284;29;20568;-75
2020/12/27 11:31:11;;;;;;;7.63;6.82;;;-2.00;70.80;;;;;;4927435;29;20044;-76
2020/12/27 11:33:43;;;;;;;7.95;6.78;;;-2.10;70.80;;;;;;4926733;30;20044;-75
2020/12/27 11:36:16;;;;;;;6.70;6.00;;;-1.90;71.00;;;;;;4927054;29;20192;-74
2020/12/27 11:38:47;;;;;;;8.40;7.40;;;-2.00;70.80;;;;;;4930129;30;20055;-74
2020/12/27 11:41:19;;;;;;;9.07;7.90;;;-1.90;71.10;;;;;;4925427;29;20051;-76
2020/12/27 11:43:50;;;;;;;9.30;7.47;;;-1.90;72.00;;;;;;4928670;30;20048;-75
2020/12/27 11:46:26;;;;;;;9.95;7.22;;;-1.80;71.00;;;;;;4922862;30;20150;-75
2020/12/27 11:48:57;;;;;;;10.68;8.10;;;-1.80;70.90;;;;;;4926363;30;20557;-75
2020/12/27 11:51:29;;;;;;;8.10;7.30;;;-1.80;71.40;;;;;;4927317;29;20040;-75
2020/12/27 11:54:00;;;;;;;8.68;7.45;;;-1.70;71.30;;;;;;4940395;29;20105;-74
2020/12/27 11:56:36;;;;;;;9.88;8.23;;;-1.40;71.70;;;;;;4924809;29;20116;-74
2020/12/27 11:59:07;;;;;;;12.65;10.63;;;-1.20;71.20;;;;;;4908296;30;20048;-73
2020/12/27 12:01:39;;;;;;;11.73;9.60;;;-1.00;70.70;;;;;;4938873;29;20091;-72
2020/12/27 12:04:10;;;;;;;12.13;10.07;;;-0.90;69.70;;;;;;4927035;30;20051;-74
2020/12/27 12:06:42;;;;;;;12.75;10.43;;;-0.80;70.30;;;;;;4924143;29;20051;-73
2020/12/27 12:09:14;;;;;;;11.88;10.10;;;-0.60;70.30;;;;;;4925365;30;20097;-74
2020/12/27 12:11:45;;;;;;;13.82;9.90;;;-0.40;70.00;;;;;;4927060;29;20582;-74
2020/12/27 12:14:17;;;;;;;11.70;10.25;;;-0.30;70.00;;;;;;4940308;29;20054;-74
2020/12/27 12:16:48;;;;;;;11.45;9.88;;;-0.20;68.90;;;;;;4924366;29;20100;-75
2020/12/27 12:19:20;;;;;;;11.43;9.68;;;-0.20;69.00;;;;;;4924928;30;20048;-75
2020/12/27 12:21:52;;;;;;;15.43;9.68;;;-0.10;68.80;;;;;;4925597;29;20079;-73
2020/12/27 12:24:23;;;;;;;15.23;9.98;;;-0.10;67.50;;;;;;4926357;30;20541;-73
2020/12/27 12:26:55;;;;;;;10.07;8.95;;;-0.10;68.20;;;;;;4926125;29;20059;-74
2020/12/27 12:29:26;;;;;;;9.98;8.90;;;0.00;69.00;;;;;;4925619;30;20136;-72
2020/12/27 12:31:58;;;;;;;12.43;9.55;;;0.10;69.10;;;;;;4926557;30;20052;-73
2020/12/27 12:34:29;;;;;;;14.27;10.73;;;0.20;68.20;;;;;;4926027;30;20142;-73
2020/12/27 12:37:01;;;;;;;14.07;10.77;;;0.10;67.00;;;;;;4925336;30;20458;-74
2020/12/27 12:39:32;;;;;;;12.43;9.88;;;0.10;68.00;;;;;;4923462;30;20060;-73
2020/12/27 12:42:04;;;;;;;11.88;9.80;;;0.20;68.00;;;;;;4937169;29;20048;-72
2020/12/27 12:44:35;;;;;;;10.88;9.60;;;0.20;68.10;;;;;;4927608;30;20051;-75
2020/12/27 12:47:07;;;;;;;12.30;10.32;;;0.30;68.00;;;;;;4926539;29;20446;-74
2020/12/27 12:49:38;;;;;;;12.93;10.30;;;0.30;68.30;;;;;;4923119;30;20695;-74
2020/12/27 12:52:10;;;;;;;15.77;10.77;;;0.40;68.10;;;;;;4925306;29;20068;-73
2020/12/27 12:54:41;;;;;;;15.90;11.02;;;0.40;68.20;;;;;;4939856;29;20047;-72
2020/12/27 12:57:12;;;;;;;19.17;12.23;;;0.40;67.70;;;;;;4918464;30;20063;-74
2020/12/27 12:59:44;;;;;;;15.68;10.45;;;0.50;67.70;;;;;;4939927;29;20400;-73
2020/12/27 13:02:19;;;;;;;15.40;11.25;;;0.50;67.20;;;;;;4925909;29;20051;-74
2020/12/27 13:04:50;;;;;;;40.10;32.92;;;0.60;67.80;;;;;;4925547;30;20062;-75
2020/12/27 13:07:22;;;;;;;18.95;11.70;;;0.60;67.20;;;;;;4924672;29;20580;-71
2020/12/27 13:09:53;;;;;;;14.13;11.10;;;0.50;65.20;;;;;;4923274;30;20047;-73
2020/12/27 13:12:34;;;;;;;14.80;10.90;;;0.40;65.80;;;;;;4924453;29;20065;-74
2020/12/27 13:15:06;;;;;;;15.40;11.18;;;0.40;65.70;;;;;;4924095;29;20651;-73
2020/12/27 13:17:37;;;;;;;13.30;10.77;;;0.40;66.60;;;;;;4924268;30;20039;-73
2020/12/27 13:20:10;;;;;;;13.38;10.88;;;0.40;66.50;;;;;;4922025;29;20055;-72
2020/12/27 13:22:42;;;;;;;17.13;12.13;;;0.30;67.00;;;;;;4922999;30;20622;-73
2020/12/27 13:25:17;;;;;;;14.25;11.60;;;0.20;66.10;;;;;;4922090;29;20055;-72
2020/12/27 13:27:48;;;;;;;17.35;13.52;;;0.10;67.40;;;;;;4924409;30;20075;-73
2020/12/27 13:30:21;;;;;;;14.38;11.18;;;0.20;67.50;;;;;;4923780;29;20054;-72
2020/12/27 13:32:52;;;;;;;13.30;10.75;;;0.20;67.10;;;;;;4924970;30;20446;-73
2020/12/27 13:35:23;;;;;;;11.90;10.60;;;0.20;67.80;;;;;;4924571;29;20059;-71